Aérodrome :
LOGIN :

S'inscrire | Disclaimer

   EN    FR    IT 

 










Légende :    VFR   VFR Marginal   IFR   IFR Intensif   IFR Très Intensif
Visi : 
Plafond : 
>= 8 km
>= 3000ft
5 à 8 km
1000 à 3000 ft
1500m à 5 km
500 à 1000 ft
800 à 1500m
200 à 500 ft
< 800m
< 200 ft
Symboles :   Orages  Brouillard  Fortes neiges  Fortes précipitations  Vent > 20 kt
SIGMETs :   Divers  Orages  Givrage  Turbulence  Onde Orograph.  Cendres Volcan.







- Altitude de l'aérodrome : 13 ft
- Code IATA : SNR
- Voir les cartes d'approche


LFRZ - St-Nazaire

DERNIER METAR :
  • 161930Z AUTO 28014KT 230V320 9999 -RA SCT009/// BKN017/// BKN024/// ///TCU 09/08 Q1010 BECMG SCT020

METARs EXPIRÉS :
  • 161900Z AUTO 24010KT 9999 FEW015/// SCT030/// BKN045/// ///CB 10/09 Q1009 TEMPO 32015G25KT 4000 SHRA BECMG SCT020
  • 161830Z AUTO 23010KT 9999 SCT006/// SCT019/// BKN036/// ///TCU 09/09 Q1009 TEMPO 32015G25KT 4000 SHRA BKN004 BKN020TCU SCT030CB
  • 161800Z AUTO 22014KT 9999 BKN004/// BKN008/// BKN033/// ///TCU 09/09 Q1009 TEMPO 32015G25KT 4000 SHRA BKN020TCU SCT030CB
  • 161730Z AUTO 22011KT 190V250 5000 RA BR BKN006/// OVC012/// ///TCU 09/08 Q1009 TEMPO 32015G25KT BKN020TCU SCT030CB
  • 161700Z AUTO 20011KT 9999 BKN016 BKN024 BKN036 09/08 Q1009 TEMPO 32015G25KT 4000 SHRA BKN020TCU SCT030CB

TAF AMD TAF LFRZ
Valide du 16 à 18h jusqu'au 17 à 18h UTC


161758Z 1618/1718 20010KT 9999 BKN028
TEMPO 1618/1620 32015G25KT 4000 SHRA BKN004 BKN020TCU SCT030CB
BECMG 1620/1622 28008KT SCT020
TEMPO 1701/1712 27020G30KT 4000 -SHRA SCT020CB BKN030TCU
BECMG 1712/1715 36010KT
Pas de NOTAMs connus pour ce terrain.



MET'MAP, la Météo Aéronautique d'un coup d'oeil ! - Copyright ORBIFLY Décembre 2007 - Disclaimer

ORBIFLY MET'MAP TEAM :

Programmation & Développement : Alexandra Zaïnal
Conception & Développement : Baudouin d'Aumeries
Co-Programmation & Développement : Marc-Olivier Méhu
Soutien technique & logistique : Manuel Goepfert

Contact : metmap@orbifly.com




SOURCES & CREDITS :

   NOAA